sensor_id;sensor_type;location;lat;lon;timestamp;P1;durP1;ratioP1;P2;durP2;ratioP2
42478;SDS011;28110;47.080;9.476;2023-09-07T00:00:41;5.80;;;4.07;;
42478;SDS011;28110;47.080;9.476;2023-09-07T00:03:07;7.28;;;3.95;;
42478;SDS011;28110;47.080;9.476;2023-09-07T00:05:32;12.30;;;4.93;;
42478;SDS011;28110;47.080;9.476;2023-09-07T00:07:58;6.57;;;4.07;;
42478;SDS011;28110;47.080;9.476;2023-09-07T00:10:23;7.95;;;3.80;;
42478;SDS011;28110;47.080;9.476;2023-09-07T00:12:50;7.72;;;4.45;;
42478;SDS011;28110;47.080;9.476;2023-09-07T00:15:16;4.77;;;3.80;;
42478;SDS011;28110;47.080;9.476;2023-09-07T00:17:44;5.90;;;3.97;;
42478;SDS011;28110;47.080;9.476;2023-09-07T00:20:10;6.07;;;4.10;;
42478;SDS011;28110;47.080;9.476;2023-09-07T00:22:36;5.57;;;3.90;;
42478;SDS011;28110;47.080;9.476;2023-09-07T00:25:02;7.23;;;3.80;;
42478;SDS011;28110;47.080;9.476;2023-09-07T00:27:29;5.88;;;4.07;;
42478;SDS011;28110;47.080;9.476;2023-09-07T00:29:55;6.47;;;3.97;;
42478;SDS011;28110;47.080;9.476;2023-09-07T00:32:20;5.67;;;3.83;;
42478;SDS011;28110;47.080;9.476;2023-09-07T00:34:46;4.45;;;3.53;;
42478;SDS011;28110;47.080;9.476;2023-09-07T00:37:11;5.20;;;3.63;;
42478;SDS011;28110;47.080;9.476;2023-09-07T00:39:37;7.50;;;4.10;;
42478;SDS011;28110;47.080;9.476;2023-09-07T00:42:03;6.78;;;4.18;;
42478;SDS011;28110;47.080;9.476;2023-09-07T00:44:28;5.47;;;4.00;;
42478;SDS011;28110;47.080;9.476;2023-09-07T00:46:54;6.77;;;4.43;;
42478;SDS011;28110;47.080;9.476;2023-09-07T00:49:22;7.88;;;3.85;;
42478;SDS011;28110;47.080;9.476;2023-09-07T00:51:49;5.60;;;4.07;;
42478;SDS011;28110;47.080;9.476;2023-09-07T00:54:15;5.00;;;3.53;;
42478;SDS011;28110;47.080;9.476;2023-09-07T00:56:43;4.90;;;3.70;;
42478;SDS011;28110;47.080;9.476;2023-09-07T00:59:09;6.17;;;3.87;;
42478;SDS011;28110;47.080;9.476;2023-09-07T01:01:36;5.93;;;3.97;;
42478;SDS011;28110;47.080;9.476;2023-09-07T01:04:02;9.93;;;4.32;;
42478;SDS011;28110;47.080;9.476;2023-09-07T01:06:37;4.97;;;3.90;;
42478;SDS011;28110;47.080;9.476;2023-09-07T01:09:13;5.72;;;3.67;;
42478;SDS011;28110;47.080;9.476;2023-09-07T01:11:42;14.10;;;4.15;;
42478;SDS011;28110;47.080;9.476;2023-09-07T01:14:07;5.13;;;3.90;;
42478;SDS011;28110;47.080;9.476;2023-09-07T01:16:33;7.80;;;3.97;;
42478;SDS011;28110;47.080;9.476;2023-09-07T01:19:00;7.27;;;3.80;;
42478;SDS011;28110;47.080;9.476;2023-09-07T01:21:26;7.47;;;4.15;;
42478;SDS011;28110;47.080;9.476;2023-09-07T01:23:59;6.88;;;3.90;;
42478;SDS011;28110;47.080;9.476;2023-09-07T01:26:25;9.27;;;4.00;;
42478;SDS011;28110;47.080;9.476;2023-09-07T01:28:50;7.03;;;4.07;;
42478;SDS011;28110;47.080;9.476;2023-09-07T01:31:16;5.78;;;3.92;;
42478;SDS011;28110;47.080;9.476;2023-09-07T01:33:42;6.10;;;3.73;;
42478;SDS011;28110;47.080;9.476;2023-09-07T01:36:08;5.03;;;3.47;;
42478;SDS011;28110;47.080;9.476;2023-09-07T01:38:33;6.63;;;3.63;;
42478;SDS011;28110;47.080;9.476;2023-09-07T01:40:59;6.03;;;4.27;;
42478;SDS011;28110;47.080;9.476;2023-09-07T01:43:24;4.68;;;3.83;;
42478;SDS011;28110;47.080;9.476;2023-09-07T01:45:50;4.97;;;3.60;;
42478;SDS011;28110;47.080;9.476;2023-09-07T01:48:16;10.82;;;3.78;;
42478;SDS011;28110;47.080;9.476;2023-09-07T01:50:41;6.47;;;3.97;;
42478;SDS011;28110;47.080;9.476;2023-09-07T01:53:07;8.80;;;3.72;;
42478;SDS011;28110;47.080;9.476;2023-09-07T01:55:32;5.97;;;3.97;;
42478;SDS011;28110;47.080;9.476;2023-09-07T01:57:58;5.47;;;4.10;;
42478;SDS011;28110;47.080;9.476;2023-09-07T02:00:24;6.63;;;4.00;;
42478;SDS011;28110;47.080;9.476;2023-09-07T02:02:49;7.20;;;3.90;;
42478;SDS011;28110;47.080;9.476;2023-09-07T02:05:15;7.37;;;4.23;;
42478;SDS011;28110;47.080;9.476;2023-09-07T02:07:41;8.18;;;4.07;;
42478;SDS011;28110;47.080;9.476;2023-09-07T02:10:07;6.32;;;4.38;;
42478;SDS011;28110;47.080;9.476;2023-09-07T02:12:33;6.15;;;4.13;;
42478;SDS011;28110;47.080;9.476;2023-09-07T02:14:59;5.23;;;4.30;;
42478;SDS011;28110;47.080;9.476;2023-09-07T02:17:27;6.78;;;4.00;;
42478;SDS011;28110;47.080;9.476;2023-09-07T02:19:52;7.83;;;3.73;;
42478;SDS011;28110;47.080;9.476;2023-09-07T02:22:18;8.30;;;3.70;;
42478;SDS011;28110;47.080;9.476;2023-09-07T02:24:43;4.28;;;3.67;;
42478;SDS011;28110;47.080;9.476;2023-09-07T02:27:09;5.83;;;4.23;;
42478;SDS011;28110;47.080;9.476;2023-09-07T02:29:34;4.93;;;3.83;;
42478;SDS011;28110;47.080;9.476;2023-09-07T02:32:00;7.82;;;3.50;;
42478;SDS011;28110;47.080;9.476;2023-09-07T02:34:25;4.80;;;3.90;;
42478;SDS011;28110;47.080;9.476;2023-09-07T02:36:51;7.30;;;4.40;;
42478;SDS011;28110;47.080;9.476;2023-09-07T02:39:16;5.22;;;4.00;;
42478;SDS011;28110;47.080;9.476;2023-09-07T02:41:42;5.53;;;3.50;;
42478;SDS011;28110;47.080;9.476;2023-09-07T02:44:08;7.13;;;4.45;;
42478;SDS011;28110;47.080;9.476;2023-09-07T02:46:33;6.07;;;4.03;;
42478;SDS011;28110;47.080;9.476;2023-09-07T02:48:59;4.63;;;3.90;;
42478;SDS011;28110;47.080;9.476;2023-09-07T02:51:24;6.05;;;4.28;;
42478;SDS011;28110;47.080;9.476;2023-09-07T02:53:50;8.17;;;3.90;;
42478;SDS011;28110;47.080;9.476;2023-09-07T02:56:16;5.75;;;3.95;;
42478;SDS011;28110;47.080;9.476;2023-09-07T02:58:42;4.35;;;3.45;;
42478;SDS011;28110;47.080;9.476;2023-09-07T03:01:08;4.40;;;3.57;;
42478;SDS011;28110;47.080;9.476;2023-09-07T03:03:34;4.90;;;3.60;;
42478;SDS011;28110;47.080;9.476;2023-09-07T03:06:07;5.35;;;3.53;;
42478;SDS011;28110;47.080;9.476;2023-09-07T03:08:33;6.35;;;3.70;;
42478;SDS011;28110;47.080;9.476;2023-09-07T03:11:02;6.70;;;3.97;;
42478;SDS011;28110;47.080;9.476;2023-09-07T03:13:29;8.02;;;3.63;;
42478;SDS011;28110;47.080;9.476;2023-09-07T03:15:55;8.05;;;3.80;;
42478;SDS011;28110;47.080;9.476;2023-09-07T03:18:21;4.60;;;3.67;;
42478;SDS011;28110;47.080;9.476;2023-09-07T03:20:46;5.17;;;3.80;;
42478;SDS011;28110;47.080;9.476;2023-09-07T03:23:12;6.13;;;3.60;;
42478;SDS011;28110;47.080;9.476;2023-09-07T03:25:37;5.77;;;3.90;;
42478;SDS011;28110;47.080;9.476;2023-09-07T03:28:03;5.78;;;3.83;;
42478;SDS011;28110;47.080;9.476;2023-09-07T03:30:29;5.53;;;3.63;;
42478;SDS011;28110;47.080;9.476;2023-09-07T03:32:55;5.80;;;3.60;;
42478;SDS011;28110;47.080;9.476;2023-09-07T03:35:20;5.27;;;3.77;;
42478;SDS011;28110;47.080;9.476;2023-09-07T03:37:46;4.82;;;3.53;;
42478;SDS011;28110;47.080;9.476;2023-09-07T03:40:12;7.23;;;3.60;;
42478;SDS011;28110;47.080;9.476;2023-09-07T03:42:37;6.93;;;3.80;;
42478;SDS011;28110;47.080;9.476;2023-09-07T03:45:04;5.35;;;3.40;;
42478;SDS011;28110;47.080;9.476;2023-09-07T03:47:30;5.70;;;3.30;;
42478;SDS011;28110;47.080;9.476;2023-09-07T03:49:55;5.03;;;3.63;;
42478;SDS011;28110;47.080;9.476;2023-09-07T03:52:22;7.32;;;3.67;;
42478;SDS011;28110;47.080;9.476;2023-09-07T03:54:50;5.03;;;3.95;;
42478;SDS011;28110;47.080;9.476;2023-09-07T03:57:17;5.70;;;4.00;;
42478;SDS011;28110;47.080;9.476;2023-09-07T03:59:43;5.03;;;3.60;;
42478;SDS011;28110;47.080;9.476;2023-09-07T04:02:09;6.70;;;4.00;;
42478;SDS011;28110;47.080;9.476;2023-09-07T04:04:34;5.00;;;3.58;;
42478;SDS011;28110;47.080;9.476;2023-09-07T04:07:00;5.27;;;3.53;;
42478;SDS011;28110;47.080;9.476;2023-09-07T04:09:25;4.80;;;3.73;;
42478;SDS011;28110;47.080;9.476;2023-09-07T04:11:50;4.93;;;3.60;;
42478;SDS011;28110;47.080;9.476;2023-09-07T04:14:16;5.87;;;3.40;;
42478;SDS011;28110;47.080;9.476;2023-09-07T04:16:42;5.07;;;3.63;;
42478;SDS011;28110;47.080;9.476;2023-09-07T04:19:07;4.18;;;3.35;;
42478;SDS011;28110;47.080;9.476;2023-09-07T04:21:34;4.37;;;3.30;;
42478;SDS011;28110;47.080;9.476;2023-09-07T04:24:01;4.88;;;3.53;;
42478;SDS011;28110;47.080;9.476;2023-09-07T04:26:27;5.93;;;3.55;;
42478;SDS011;28110;47.080;9.476;2023-09-07T04:28:52;5.03;;;3.37;;
42478;SDS011;28110;47.080;9.476;2023-09-07T04:31:18;5.80;;;3.50;;
42478;SDS011;28110;47.080;9.476;2023-09-07T04:33:43;5.00;;;3.63;;
42478;SDS011;28110;47.080;9.476;2023-09-07T04:36:10;4.03;;;3.10;;
42478;SDS011;28110;47.080;9.476;2023-09-07T04:38:37;6.63;;;3.40;;
42478;SDS011;28110;47.080;9.476;2023-09-07T04:41:09;8.38;;;3.80;;
42478;SDS011;28110;47.080;9.476;2023-09-07T04:43:37;6.18;;;3.80;;
42478;SDS011;28110;47.080;9.476;2023-09-07T04:46:05;4.73;;;3.43;;
42478;SDS011;28110;47.080;9.476;2023-09-07T04:48:31;4.82;;;3.67;;
42478;SDS011;28110;47.080;9.476;2023-09-07T04:51:02;9.45;;;3.67;;
42478;SDS011;28110;47.080;9.476;2023-09-07T04:53:30;6.70;;;3.70;;
42478;SDS011;28110;47.080;9.476;2023-09-07T04:55:57;10.00;;;3.70;;
42478;SDS011;28110;47.080;9.476;2023-09-07T04:58:23;4.83;;;3.53;;
42478;SDS011;28110;47.080;9.476;2023-09-07T05:00:49;7.47;;;3.47;;
42478;SDS011;28110;47.080;9.476;2023-09-07T05:03:16;6.85;;;3.70;;
42478;SDS011;28110;47.080;9.476;2023-09-07T05:05:42;6.10;;;3.90;;
42478;SDS011;28110;47.080;9.476;2023-09-07T05:08:08;5.18;;;3.60;;
42478;SDS011;28110;47.080;9.476;2023-09-07T05:10:35;7.13;;;3.58;;
42478;SDS011;28110;47.080;9.476;2023-09-07T05:13:00;6.40;;;3.75;;
42478;SDS011;28110;47.080;9.476;2023-09-07T05:15:26;4.40;;;3.50;;
42478;SDS011;28110;47.080;9.476;2023-09-07T05:17:52;7.33;;;3.70;;
42478;SDS011;28110;47.080;9.476;2023-09-07T05:20:18;5.50;;;3.20;;
42478;SDS011;28110;47.080;9.476;2023-09-07T05:22:43;5.20;;;2.93;;
42478;SDS011;28110;47.080;9.476;2023-09-07T05:25:09;6.50;;;3.38;;
42478;SDS011;28110;47.080;9.476;2023-09-07T05:27:35;4.78;;;3.30;;
42478;SDS011;28110;47.080;9.476;2023-09-07T05:30:01;6.43;;;3.30;;
42478;SDS011;28110;47.080;9.476;2023-09-07T05:32:27;4.88;;;3.40;;
42478;SDS011;28110;47.080;9.476;2023-09-07T05:34:53;5.03;;;3.03;;
42478;SDS011;28110;47.080;9.476;2023-09-07T05:37:18;5.20;;;3.35;;
42478;SDS011;28110;47.080;9.476;2023-09-07T05:39:44;4.73;;;3.40;;
42478;SDS011;28110;47.080;9.476;2023-09-07T05:42:10;5.00;;;3.17;;
42478;SDS011;28110;47.080;9.476;2023-09-07T05:44:37;5.82;;;3.20;;
42478;SDS011;28110;47.080;9.476;2023-09-07T05:47:03;3.67;;;3.13;;
42478;SDS011;28110;47.080;9.476;2023-09-07T05:49:29;3.63;;;2.90;;
42478;SDS011;28110;47.080;9.476;2023-09-07T05:51:54;5.03;;;3.13;;
42478;SDS011;28110;47.080;9.476;2023-09-07T05:54:20;8.57;;;3.40;;
42478;SDS011;28110;47.080;9.476;2023-09-07T05:56:45;7.75;;;3.40;;
42478;SDS011;28110;47.080;9.476;2023-09-07T05:59:11;7.40;;;3.30;;
42478;SDS011;28110;47.080;9.476;2023-09-07T06:01:36;4.20;;;3.00;;
42478;SDS011;28110;47.080;9.476;2023-09-07T06:04:03;4.93;;;3.45;;
42478;SDS011;28110;47.080;9.476;2023-09-07T06:06:29;5.68;;;3.15;;
42478;SDS011;28110;47.080;9.476;2023-09-07T06:08:54;6.50;;;3.30;;
42478;SDS011;28110;47.080;9.476;2023-09-07T06:11:20;4.93;;;3.13;;
42478;SDS011;28110;47.080;9.476;2023-09-07T06:13:45;7.47;;;3.10;;
42478;SDS011;28110;47.080;9.476;2023-09-07T06:16:12;5.28;;;3.28;;
42478;SDS011;28110;47.080;9.476;2023-09-07T06:18:37;7.00;;;3.33;;
42478;SDS011;28110;47.080;9.476;2023-09-07T06:21:03;6.70;;;3.13;;
42478;SDS011;28110;47.080;9.476;2023-09-07T06:23:30;4.95;;;3.25;;
42478;SDS011;28110;47.080;9.476;2023-09-07T06:25:56;6.65;;;3.67;;
42478;SDS011;28110;47.080;9.476;2023-09-07T06:28:22;6.90;;;3.67;;
42478;SDS011;28110;47.080;9.476;2023-09-07T06:30:47;6.30;;;3.60;;
42478;SDS011;28110;47.080;9.476;2023-09-07T06:33:13;8.80;;;3.92;;
42478;SDS011;28110;47.080;9.476;2023-09-07T06:35:39;6.67;;;3.33;;
42478;SDS011;28110;47.080;9.476;2023-09-07T06:38:04;13.00;;;3.40;;
42478;SDS011;28110;47.080;9.476;2023-09-07T06:40:30;5.85;;;3.20;;
42478;SDS011;28110;47.080;9.476;2023-09-07T06:42:55;5.57;;;3.20;;
42478;SDS011;28110;47.080;9.476;2023-09-07T06:45:22;6.53;;;3.10;;
42478;SDS011;28110;47.080;9.476;2023-09-07T06:47:51;5.05;;;3.20;;
42478;SDS011;28110;47.080;9.476;2023-09-07T06:50:16;5.07;;;3.70;;
42478;SDS011;28110;47.080;9.476;2023-09-07T06:52:43;5.90;;;3.05;;
42478;SDS011;28110;47.080;9.476;2023-09-07T06:55:09;5.40;;;3.20;;
42478;SDS011;28110;47.080;9.476;2023-09-07T06:57:34;8.25;;;3.50;;
42478;SDS011;28110;47.080;9.476;2023-09-07T07:00:00;6.47;;;2.77;;
42478;SDS011;28110;47.080;9.476;2023-09-07T07:02:30;5.10;;;3.40;;
42478;SDS011;28110;47.080;9.476;2023-09-07T07:04:56;7.50;;;3.60;;
42478;SDS011;28110;47.080;9.476;2023-09-07T07:07:21;5.47;;;2.90;;
42478;SDS011;28110;47.080;9.476;2023-09-07T07:09:47;4.23;;;3.60;;
42478;SDS011;28110;47.080;9.476;2023-09-07T07:12:12;5.75;;;3.30;;
42478;SDS011;28110;47.080;9.476;2023-09-07T07:14:38;4.17;;;3.03;;
42478;SDS011;28110;47.080;9.476;2023-09-07T07:17:04;4.97;;;3.17;;
42478;SDS011;28110;47.080;9.476;2023-09-07T07:19:30;5.70;;;3.10;;
42478;SDS011;28110;47.080;9.476;2023-09-07T07:21:56;5.93;;;3.05;;
42478;SDS011;28110;47.080;9.476;2023-09-07T07:24:21;6.43;;;3.40;;
42478;SDS011;28110;47.080;9.476;2023-09-07T07:26:47;4.43;;;2.90;;
42478;SDS011;28110;47.080;9.476;2023-09-07T07:29:13;4.03;;;3.03;;
42478;SDS011;28110;47.080;9.476;2023-09-07T07:31:38;5.15;;;3.00;;
42478;SDS011;28110;47.080;9.476;2023-09-07T07:34:04;3.93;;;3.20;;
42478;SDS011;28110;47.080;9.476;2023-09-07T07:36:30;4.65;;;3.03;;
42478;SDS011;28110;47.080;9.476;2023-09-07T07:38:55;5.33;;;3.40;;
42478;SDS011;28110;47.080;9.476;2023-09-07T07:41:21;6.07;;;3.50;;
42478;SDS011;28110;47.080;9.476;2023-09-07T07:43:47;4.50;;;3.03;;
42478;SDS011;28110;47.080;9.476;2023-09-07T07:46:12;5.35;;;3.20;;
42478;SDS011;28110;47.080;9.476;2023-09-07T07:48:40;7.50;;;3.33;;
42478;SDS011;28110;47.080;9.476;2023-09-07T07:51:06;4.93;;;3.17;;
42478;SDS011;28110;47.080;9.476;2023-09-07T07:53:33;4.57;;;3.10;;
42478;SDS011;28110;47.080;9.476;2023-09-07T07:55:59;4.17;;;3.10;;
42478;SDS011;28110;47.080;9.476;2023-09-07T07:58:25;6.80;;;3.20;;
42478;SDS011;28110;47.080;9.476;2023-09-07T08:00:51;5.97;;;3.30;;
42478;SDS011;28110;47.080;9.476;2023-09-07T08:03:17;6.27;;;3.37;;
42478;SDS011;28110;47.080;9.476;2023-09-07T08:05:42;5.18;;;3.58;;
42478;SDS011;28110;47.080;9.476;2023-09-07T08:08:08;5.60;;;3.47;;
42478;SDS011;28110;47.080;9.476;2023-09-07T08:10:34;10.07;;;3.88;;
42478;SDS011;28110;47.080;9.476;2023-09-07T08:13:01;6.57;;;3.53;;
42478;SDS011;28110;47.080;9.476;2023-09-07T08:15:28;10.00;;;3.17;;
42478;SDS011;28110;47.080;9.476;2023-09-07T08:17:54;4.68;;;3.40;;
42478;SDS011;28110;47.080;9.476;2023-09-07T08:20:20;10.68;;;3.70;;
42478;SDS011;28110;47.080;9.476;2023-09-07T08:22:46;4.47;;;3.80;;
42478;SDS011;28110;47.080;9.476;2023-09-07T08:25:12;7.03;;;3.80;;
42478;SDS011;28110;47.080;9.476;2023-09-07T08:27:39;5.97;;;3.88;;
42478;SDS011;28110;47.080;9.476;2023-09-07T08:30:12;4.83;;;3.30;;
42478;SDS011;28110;47.080;9.476;2023-09-07T08:32:40;9.90;;;4.18;;
42478;SDS011;28110;47.080;9.476;2023-09-07T08:35:08;12.68;;;4.00;;
42478;SDS011;28110;47.080;9.476;2023-09-07T08:37:37;9.68;;;3.65;;
42478;SDS011;28110;47.080;9.476;2023-09-07T08:40:03;7.27;;;3.90;;
42478;SDS011;28110;47.080;9.476;2023-09-07T08:42:32;7.13;;;3.50;;
42478;SDS011;28110;47.080;9.476;2023-09-07T08:44:57;6.97;;;3.93;;
42478;SDS011;28110;47.080;9.476;2023-09-07T08:47:28;11.30;;;4.05;;
42478;SDS011;28110;47.080;9.476;2023-09-07T08:49:56;6.63;;;3.50;;
42478;SDS011;28110;47.080;9.476;2023-09-07T08:52:22;9.48;;;4.57;;
42478;SDS011;28110;47.080;9.476;2023-09-07T08:54:48;6.10;;;3.77;;
42478;SDS011;28110;47.080;9.476;2023-09-07T08:57:15;8.82;;;3.90;;
42478;SDS011;28110;47.080;9.476;2023-09-07T08:59:41;4.60;;;3.60;;
42478;SDS011;28110;47.080;9.476;2023-09-07T09:02:08;5.43;;;3.67;;
42478;SDS011;28110;47.080;9.476;2023-09-07T09:04:35;5.97;;;3.67;;
42478;SDS011;28110;47.080;9.476;2023-09-07T09:07:02;4.97;;;3.45;;
42478;SDS011;28110;47.080;9.476;2023-09-07T09:09:28;5.57;;;3.55;;
42478;SDS011;28110;47.080;9.476;2023-09-07T09:11:54;5.83;;;3.57;;
42478;SDS011;28110;47.080;9.476;2023-09-07T09:14:30;8.73;;;3.38;;
42478;SDS011;28110;47.080;9.476;2023-09-07T09:16:56;6.15;;;3.72;;
42478;SDS011;28110;47.080;9.476;2023-09-07T09:19:30;11.63;;;3.80;;
42478;SDS011;28110;47.080;9.476;2023-09-07T09:21:59;6.68;;;3.80;;
42478;SDS011;28110;47.080;9.476;2023-09-07T09:24:25;6.00;;;4.32;;
42478;SDS011;28110;47.080;9.476;2023-09-07T09:26:51;6.57;;;3.67;;
42478;SDS011;28110;47.080;9.476;2023-09-07T09:29:21;10.20;;;4.07;;
42478;SDS011;28110;47.080;9.476;2023-09-07T09:31:47;8.03;;;3.77;;
42478;SDS011;28110;47.080;9.476;2023-09-07T09:34:13;7.93;;;4.05;;
42478;SDS011;28110;47.080;9.476;2023-09-07T09:36:41;6.53;;;4.10;;
42478;SDS011;28110;47.080;9.476;2023-09-07T09:39:07;6.10;;;4.10;;
42478;SDS011;28110;47.080;9.476;2023-09-07T09:41:34;6.93;;;4.45;;
42478;SDS011;28110;47.080;9.476;2023-09-07T09:44:02;5.70;;;4.30;;
42478;SDS011;28110;47.080;9.476;2023-09-07T09:46:28;7.75;;;3.97;;
42478;SDS011;28110;47.080;9.476;2023-09-07T09:48:56;5.63;;;4.10;;
42478;SDS011;28110;47.080;9.476;2023-09-07T09:51:22;6.20;;;3.78;;
42478;SDS011;28110;47.080;9.476;2023-09-07T09:53:49;5.82;;;3.70;;
42478;SDS011;28110;47.080;9.476;2023-09-07T09:56:16;6.18;;;3.85;;
42478;SDS011;28110;47.080;9.476;2023-09-07T09:58:42;5.78;;;4.15;;
42478;SDS011;28110;47.080;9.476;2023-09-07T10:01:08;4.87;;;3.97;;
42478;SDS011;28110;47.080;9.476;2023-09-07T10:03:40;9.75;;;3.90;;
42478;SDS011;28110;47.080;9.476;2023-09-07T10:06:33;7.35;;;4.00;;
42478;SDS011;28110;47.080;9.476;2023-09-07T10:09:02;6.63;;;3.90;;
42478;SDS011;28110;47.080;9.476;2023-09-07T10:11:36;8.60;;;4.25;;
42478;SDS011;28110;47.080;9.476;2023-09-07T10:14:03;7.57;;;4.35;;
42478;SDS011;28110;47.080;9.476;2023-09-07T10:16:40;10.18;;;4.40;;
42478;SDS011;28110;47.080;9.476;2023-09-07T10:19:21;6.93;;;4.68;;
42478;SDS011;28110;47.080;9.476;2023-09-07T10:21:48;6.13;;;4.13;;
42478;SDS011;28110;47.080;9.476;2023-09-07T10:24:32;7.90;;;4.18;;
42478;SDS011;28110;47.080;9.476;2023-09-07T10:27:05;6.45;;;4.70;;
42478;SDS011;28110;47.080;9.476;2023-09-07T10:32:38;12.00;;;5.20;;
42478;SDS011;28110;47.080;9.476;2023-09-07T10:35:16;6.57;;;4.80;;
42478;SDS011;28110;47.080;9.476;2023-09-07T10:37:46;8.95;;;5.10;;
42478;SDS011;28110;47.080;9.476;2023-09-07T10:40:12;7.60;;;5.25;;
42478;SDS011;28110;47.080;9.476;2023-09-07T10:42:43;9.07;;;5.40;;
42478;SDS011;28110;47.080;9.476;2023-09-07T10:45:12;6.37;;;5.27;;
42478;SDS011;28110;47.080;9.476;2023-09-07T10:47:44;11.43;;;4.80;;
42478;SDS011;28110;47.080;9.476;2023-09-07T10:50:11;10.27;;;4.93;;
42478;SDS011;28110;47.080;9.476;2023-09-07T10:52:38;6.25;;;4.85;;
42478;SDS011;28110;47.080;9.476;2023-09-07T10:55:08;8.67;;;5.07;;
42478;SDS011;28110;47.080;9.476;2023-09-07T10:57:44;8.55;;;4.85;;
42478;SDS011;28110;47.080;9.476;2023-09-07T11:00:11;8.43;;;5.50;;
42478;SDS011;28110;47.080;9.476;2023-09-07T11:02:39;8.73;;;5.15;;
42478;SDS011;28110;47.080;9.476;2023-09-07T11:05:05;10.27;;;5.38;;
42478;SDS011;28110;47.080;9.476;2023-09-07T11:07:32;9.97;;;5.30;;
42478;SDS011;28110;47.080;9.476;2023-09-07T11:09:58;15.00;;;5.90;;
42478;SDS011;28110;47.080;9.476;2023-09-07T11:12:24;7.50;;;5.40;;
42478;SDS011;28110;47.080;9.476;2023-09-07T11:14:53;7.90;;;5.73;;
42478;SDS011;28110;47.080;9.476;2023-09-07T11:17:19;7.88;;;5.45;;
42478;SDS011;28110;47.080;9.476;2023-09-07T11:19:53;15.65;;;6.10;;
42478;SDS011;28110;47.080;9.476;2023-09-07T11:22:19;10.33;;;5.80;;
42478;SDS011;28110;47.080;9.476;2023-09-07T11:24:44;8.98;;;5.32;;
42478;SDS011;28110;47.080;9.476;2023-09-07T11:27:11;9.48;;;5.53;;
42478;SDS011;28110;47.080;9.476;2023-09-07T11:29:36;7.13;;;5.00;;
42478;SDS011;28110;47.080;9.476;2023-09-07T11:32:07;13.25;;;5.78;;
42478;SDS011;28110;47.080;9.476;2023-09-07T11:34:33;8.17;;;4.83;;
42478;SDS011;28110;47.080;9.476;2023-09-07T11:37:01;6.60;;;5.30;;
42478;SDS011;28110;47.080;9.476;2023-09-07T11:39:28;9.80;;;4.85;;
42478;SDS011;28110;47.080;9.476;2023-09-07T11:41:54;11.68;;;5.63;;
42478;SDS011;28110;47.080;9.476;2023-09-07T11:44:19;5.70;;;5.07;;
42478;SDS011;28110;47.080;9.476;2023-09-07T11:46:45;9.77;;;5.10;;
42478;SDS011;28110;47.080;9.476;2023-09-07T11:49:11;14.60;;;5.07;;
42478;SDS011;28110;47.080;9.476;2023-09-07T11:51:36;6.77;;;5.00;;
42478;SDS011;28110;47.080;9.476;2023-09-07T11:54:02;7.68;;;5.15;;
42478;SDS011;28110;47.080;9.476;2023-09-07T11:56:29;10.48;;;4.50;;
42478;SDS011;28110;47.080;9.476;2023-09-07T11:58:55;6.80;;;4.40;;
42478;SDS011;28110;47.080;9.476;2023-09-07T12:01:21;6.88;;;5.25;;
42478;SDS011;28110;47.080;9.476;2023-09-07T12:03:46;8.77;;;5.10;;
42478;SDS011;28110;47.080;9.476;2023-09-07T12:06:12;7.22;;;4.95;;
42478;SDS011;28110;47.080;9.476;2023-09-07T12:08:41;7.35;;;5.00;;
42478;SDS011;28110;47.080;9.476;2023-09-07T12:11:07;5.30;;;4.80;;
42478;SDS011;28110;47.080;9.476;2023-09-07T12:13:33;8.23;;;5.22;;
42478;SDS011;28110;47.080;9.476;2023-09-07T12:15:59;8.13;;;4.83;;
42478;SDS011;28110;47.080;9.476;2023-09-07T12:18:27;6.97;;;4.70;;
42478;SDS011;28110;47.080;9.476;2023-09-07T12:20:52;11.17;;;5.40;;
42478;SDS011;28110;47.080;9.476;2023-09-07T12:23:18;6.22;;;4.35;;
42478;SDS011;28110;47.080;9.476;2023-09-07T12:25:43;11.70;;;5.50;;
42478;SDS011;28110;47.080;9.476;2023-09-07T12:28:09;6.43;;;5.10;;
42478;SDS011;28110;47.080;9.476;2023-09-07T12:30:34;7.97;;;5.10;;
42478;SDS011;28110;47.080;9.476;2023-09-07T12:33:00;6.25;;;4.85;;
42478;SDS011;28110;47.080;9.476;2023-09-07T12:35:25;7.13;;;5.37;;
42478;SDS011;28110;47.080;9.476;2023-09-07T12:37:51;9.02;;;5.80;;
42478;SDS011;28110;47.080;9.476;2023-09-07T12:40:17;7.83;;;5.47;;
42478;SDS011;28110;47.080;9.476;2023-09-07T12:42:43;10.47;;;6.30;;
42478;SDS011;28110;47.080;9.476;2023-09-07T12:45:11;7.50;;;5.67;;
42478;SDS011;28110;47.080;9.476;2023-09-07T12:47:39;8.88;;;6.55;;
42478;SDS011;28110;47.080;9.476;2023-09-07T12:50:05;7.63;;;6.00;;
42478;SDS011;28110;47.080;9.476;2023-09-07T12:52:32;12.90;;;6.88;;
42478;SDS011;28110;47.080;9.476;2023-09-07T12:55:00;17.47;;;5.83;;
42478;SDS011;28110;47.080;9.476;2023-09-07T12:57:26;9.13;;;6.15;;
42478;SDS011;28110;47.080;9.476;2023-09-07T12:59:51;7.87;;;6.20;;
42478;SDS011;28110;47.080;9.476;2023-09-07T13:02:17;9.47;;;6.50;;
42478;SDS011;28110;47.080;9.476;2023-09-07T13:04:42;9.40;;;6.73;;
42478;SDS011;28110;47.080;9.476;2023-09-07T13:07:08;10.67;;;6.40;;
42478;SDS011;28110;47.080;9.476;2023-09-07T13:09:33;9.00;;;6.45;;
42478;SDS011;28110;47.080;9.476;2023-09-07T13:11:59;8.83;;;6.37;;
42478;SDS011;28110;47.080;9.476;2023-09-07T13:14:25;10.90;;;6.00;;
42478;SDS011;28110;47.080;9.476;2023-09-07T13:16:51;12.60;;;6.87;;
42478;SDS011;28110;47.080;9.476;2023-09-07T13:19:16;12.07;;;6.80;;
42478;SDS011;28110;47.080;9.476;2023-09-07T13:21:42;11.43;;;6.53;;
42478;SDS011;28110;47.080;9.476;2023-09-07T13:24:07;9.97;;;6.90;;
42478;SDS011;28110;47.080;9.476;2023-09-07T13:26:33;13.43;;;6.68;;
42478;SDS011;28110;47.080;9.476;2023-09-07T13:28:58;11.07;;;6.60;;
42478;SDS011;28110;47.080;9.476;2023-09-07T13:31:24;10.00;;;6.53;;
42478;SDS011;28110;47.080;9.476;2023-09-07T13:33:49;11.43;;;7.03;;
42478;SDS011;28110;47.080;9.476;2023-09-07T13:36:15;12.40;;;6.37;;
42478;SDS011;28110;47.080;9.476;2023-09-07T13:38:42;9.95;;;6.35;;
42478;SDS011;28110;47.080;9.476;2023-09-07T13:41:08;13.18;;;7.03;;
42478;SDS011;28110;47.080;9.476;2023-09-07T13:43:34;11.53;;;6.47;;
42478;SDS011;28110;47.080;9.476;2023-09-07T13:45:59;9.33;;;6.53;;
42478;SDS011;28110;47.080;9.476;2023-09-07T13:48:25;11.15;;;6.40;;
42478;SDS011;28110;47.080;9.476;2023-09-07T13:50:51;9.70;;;6.37;;
42478;SDS011;28110;47.080;9.476;2023-09-07T13:53:16;9.00;;;6.37;;
42478;SDS011;28110;47.080;9.476;2023-09-07T13:55:42;7.75;;;5.97;;
42478;SDS011;28110;47.080;9.476;2023-09-07T13:58:09;10.23;;;6.40;;
42478;SDS011;28110;47.080;9.476;2023-09-07T14:00:34;9.93;;;6.53;;
42478;SDS011;28110;47.080;9.476;2023-09-07T14:03:00;9.93;;;6.13;;
42478;SDS011;28110;47.080;9.476;2023-09-07T14:05:25;7.20;;;6.33;;
42478;SDS011;28110;47.080;9.476;2023-09-07T14:07:51;10.10;;;6.65;;
42478;SDS011;28110;47.080;9.476;2023-09-07T14:10:16;8.57;;;6.60;;
42478;SDS011;28110;47.080;9.476;2023-09-07T14:12:42;8.30;;;6.50;;
42478;SDS011;28110;47.080;9.476;2023-09-07T14:15:09;8.50;;;6.75;;
42478;SDS011;28110;47.080;9.476;2023-09-07T14:17:34;7.45;;;6.65;;
42478;SDS011;28110;47.080;9.476;2023-09-07T14:20:00;10.37;;;6.97;;
42478;SDS011;28110;47.080;9.476;2023-09-07T14:22:25;9.77;;;6.73;;
42478;SDS011;28110;47.080;9.476;2023-09-07T14:24:51;8.43;;;6.70;;
42478;SDS011;28110;47.080;9.476;2023-09-07T14:27:17;8.37;;;6.03;;
42478;SDS011;28110;47.080;9.476;2023-09-07T14:29:42;10.90;;;6.57;;
42478;SDS011;28110;47.080;9.476;2023-09-07T14:32:08;7.40;;;6.33;;
42478;SDS011;28110;47.080;9.476;2023-09-07T14:34:35;12.40;;;6.63;;
42478;SDS011;28110;47.080;9.476;2023-09-07T14:37:02;10.77;;;6.68;;
42478;SDS011;28110;47.080;9.476;2023-09-07T14:39:27;12.52;;;7.10;;
42478;SDS011;28110;47.080;9.476;2023-09-07T14:41:53;7.60;;;6.33;;
42478;SDS011;28110;47.080;9.476;2023-09-07T14:44:19;7.13;;;5.95;;